Time;durP1;ratioP1;P1;durP2;ratioP2;P2;SDS_P1;SDS_P2;PMS_P1;PMS_P2;Temp;Humidity;BMP_temperature;BMP_pressure;BME280_temperature;BME280_humidity;BME280_pressure;Samples;Min_cycle;Max_cycle;Signal;HPM_P1;HPM_P2
2021/10/13 00:01:31;;;;;;;;;;;;;;;;;;4999478;28;19913;-80
2021/10/13 00:03:56;;;;;;;;;;;;;;;;;;4998022;28;19913;-80
2021/10/13 00:06:22;;;;;;;;;;;;;;;;;;5014472;28;20012;-80
2021/10/13 00:08:47;;;;;;;;;;;;;;;;;;4997165;28;19964;-80
2021/10/13 00:11:12;;;;;;;;;;;;;;;;;;5024025;28;19917;-80
2021/10/13 00:13:38;;;;;;;;;;;;;;;;;;4983186;28;19918;-80
2021/10/13 00:16:04;;;;;;;;;;;;;;;;;;4996681;28;19924;-80
2021/10/13 00:18:29;;;;;;;;;;;;;;;;;;5013130;28;19928;-80
2021/10/13 00:20:55;;;;;;;;;;;;;;;;;;4997329;28;19922;-80
2021/10/13 00:23:20;;;;;;;;;;;;;;;;;;4981605;28;19917;-80
2021/10/13 00:25:45;;;;;;;;;;;;;;;;;;4994408;28;19921;-80
2021/10/13 00:28:10;;;;;;;;;;;;;;;;;;5007116;28;20076;-81
2021/10/13 00:30:36;;;;;;;;;;;;;;;;;;5014083;28;19925;-80
2021/10/13 00:33:01;;;;;;;;;;;;;;;;;;5018112;28;19920;-80
2021/10/13 00:35:27;;;;;;;;;;;;;;;;;;5018207;28;20009;-80
2021/10/13 00:37:53;;;;;;;;;;;;;;;;;;5017740;28;19913;-80
2021/10/13 00:40:18;;;;;;;;;;;;;;;;;;5017051;28;19956;-80
2021/10/13 00:42:44;;;;;;;;;;;;;;;;;;5017540;28;19945;-80
2021/10/13 00:45:09;;;;;;;;;;;;;;;;;;5018127;28;19921;-80
2021/10/13 00:47:35;;;;;;;;;;;;;;;;;;5018228;28;19917;-80
2021/10/13 00:50:00;;;;;;;;;;;;;;;;;;4997640;28;19921;-80
2021/10/13 00:52:26;;;;;;;;;;;;;;;;;;5011053;28;19921;-80
2021/10/13 00:54:51;;;;;;;;;;;;;;;;;;5000976;28;19924;-80
2021/10/13 00:57:17;;;;;;;;;;;;;;;;;;5017226;28;19988;-80
2021/10/13 00:59:42;;;;;;;;;;;;;;;;;;4984865;28;19972;-80
2021/10/13 01:02:08;;;;;;;;;;;;;;;;;;5017436;28;19917;-80
2021/10/13 01:04:52;;;;;;;;;;;;;;;;;;4992639;28;19917;-80
2021/10/13 01:07:35;;;;;;;;;;;;;;;;;;5028913;28;19923;-80
2021/10/13 01:10:04;;;;;;;;;;;;;;;;;;5016693;28;19917;-80
2021/10/13 01:12:38;;;;;;;;;;;;;;;;;;5001124;28;20485;-80
2021/10/13 01:15:11;;;;;;;;;;;;;;;;;;5017406;28;19913;-80
2021/10/13 01:17:36;;;;;;;;;;;;;;;;;;5017146;28;20438;-80
2021/10/13 01:20:22;;;;;;;;;;;;;;;;;;5033908;28;19928;-80
2021/10/13 01:23:06;;;;;;;;;;;;;;;;;;4989340;28;19923;-80
2021/10/13 01:25:34;;;;;;;;;;;;;;;;;;5025777;28;19917;-80
2021/10/13 01:28:01;;;;;;;;;;;;;;;;;;5017035;28;19956;-80
2021/10/13 01:30:30;;;;;;;;;;;;;;;;;;5016394;28;19975;-80
2021/10/13 01:33:06;;;;;;;;;;;;;;;;;;5017286;28;19921;-80
2021/10/13 01:35:32;;;;;;;;;;;;;;;;;;5000907;28;20280;-80
2021/10/13 01:38:01;;;;;;;;;;;;;;;;;;5016461;28;19924;-80
2021/10/13 01:40:28;;;;;;;;;;;;;;;;;;5000687;28;20011;-80
2021/10/13 01:42:53;;;;;;;;;;;;;;;;;;4986179;28;19925;-81
2021/10/13 01:45:18;;;;;;;;;;;;;;;;;;5013750;28;19914;-80
2021/10/13 01:47:44;;;;;;;;;;;;;;;;;;5007724;28;20372;-80
2021/10/13 01:50:09;;;;;;;;;;;;;;;;;;4999615;28;19925;-80
2021/10/13 01:52:35;;;;;;;;;;;;;;;;;;5000135;28;20326;-81
2021/10/13 01:55:00;;;;;;;;;;;;;;;;;;5000553;28;20371;-80
2021/10/13 01:57:26;;;;;;;;;;;;;;;;;;5013698;28;20383;-81
2021/10/13 01:59:53;;;;;;;;;;;;;;;;;;5012990;28;19917;-80
2021/10/13 02:02:19;;;;;;;;;;;;;;;;;;4984452;28;20000;-80
2021/10/13 02:04:44;;;;;;;;;;;;;;;;;;5000470;28;20055;-80
2021/10/13 02:07:10;;;;;;;;;;;;;;;;;;4999251;28;20378;-80
2021/10/13 02:09:36;;;;;;;;;;;;;;;;;;4983520;28;19913;-80
2021/10/13 02:12:01;;;;;;;;;;;;;;;;;;4983397;28;19924;-80
2021/10/13 02:14:26;;;;;;;;;;;;;;;;;;5012621;28;20047;-79
2021/10/13 02:16:53;;;;;;;;;;;;;;;;;;5015030;28;19917;-80
2021/10/13 02:19:18;;;;;;;;;;;;;;;;;;5015485;28;19921;-80
2021/10/13 02:21:46;;;;;;;;;;;;;;;;;;4999279;28;20007;-80
2021/10/13 02:24:11;;;;;;;;;;;;;;;;;;4999751;28;19921;-80
2021/10/13 02:26:46;;;;;;;;;;;;;;;;;;5000173;28;19924;-80
2021/10/13 02:29:15;;;;;;;;;;;;;;;;;;4982126;28;19952;-80
2021/10/13 02:31:40;;;;;;;;;;;;;;;;;;4999358;28;20387;-80
2021/10/13 02:34:05;;;;;;;;;;;;;;;;;;5015568;28;19998;-80
2021/10/13 02:36:31;;;;;;;;;;;;;;;;;;5015735;28;19929;-80
2021/10/13 02:38:56;;;;;;;;;;;;;;;;;;5015308;28;19921;-80
2021/10/13 02:41:21;;;;;;;;;;;;;;;;;;5015543;28;19921;-80
2021/10/13 02:43:47;;;;;;;;;;;;;;;;;;5012374;28;20007;-80
2021/10/13 02:46:14;;;;;;;;;;;;;;;;;;4995964;28;19913;-80
2021/10/13 02:48:39;;;;;;;;;;;;;;;;;;4994383;28;19932;-80
2021/10/13 02:51:13;;;;;;;;;;;;;;;;;;4998735;28;19921;-80
2021/10/13 02:53:41;;;;;;;;;;;;;;;;;;4998039;28;20059;-80
2021/10/13 02:56:12;;;;;;;;;;;;;;;;;;5015872;28;19925;-80
2021/10/13 02:58:47;;;;;;;;;;;;;;;;;;4998542;28;20383;-80
2021/10/13 03:01:14;;;;;;;;;;;;;;;;;;5006657;28;20012;-80
2021/10/13 03:03:44;;;;;;;;;;;;;;;;;;4982760;28;19924;-80
2021/10/13 03:06:09;;;;;;;;;;;;;;;;;;5015372;28;20372;-80
2021/10/13 03:08:35;;;;;;;;;;;;;;;;;;5014700;28;19972;-81
2021/10/13 03:11:00;;;;;;;;;;;;;;;;;;4995415;28;19917;-80
2021/10/13 03:13:28;;;;;;;;;;;;;;;;;;5021992;28;19942;-80
2021/10/13 03:15:53;;;;;;;;;;;;;;;;;;4998807;28;19983;-80
2021/10/13 03:18:18;;;;;;;;;;;;;;;;;;5014550;28;20387;-80
2021/10/13 03:20:43;;;;;;;;;;;;;;;;;;4998088;28;19924;-80
2021/10/13 03:23:09;;;;;;;;;;;;;;;;;;5015454;28;19913;-80
2021/10/13 03:25:35;;;;;;;;;;;;;;;;;;5014955;28;20484;-80
2021/10/13 03:28:01;;;;;;;;;;;;;;;;;;5006479;28;19964;-80
2021/10/13 03:30:27;;;;;;;;;;;;;;;;;;4982178;28;19952;-79
2021/10/13 03:32:52;;;;;;;;;;;;;;;;;;4998613;28;19952;-80
2021/10/13 03:35:24;;;;;;;;;;;;;;;;;;5015140;28;19925;-80
2021/10/13 03:37:49;;;;;;;;;;;;;;;;;;5014924;28;19917;-80
2021/10/13 03:40:16;;;;;;;;;;;;;;;;;;4994516;28;19988;-80
2021/10/13 03:42:41;;;;;;;;;;;;;;;;;;5031195;28;19921;-80
2021/10/13 03:45:07;;;;;;;;;;;;;;;;;;5014874;28;20299;-80
2021/10/13 03:47:32;;;;;;;;;;;;;;;;;;4991686;28;19917;-80
2021/10/13 03:49:57;;;;;;;;;;;;;;;;;;4997909;28;20286;-80
2021/10/13 03:52:23;;;;;;;;;;;;;;;;;;4997813;28;19948;-80
2021/10/13 03:54:48;;;;;;;;;;;;;;;;;;5014680;28;19959;-80
2021/10/13 03:57:13;;;;;;;;;;;;;;;;;;4997705;28;19917;-81
2021/10/13 03:59:38;;;;;;;;;;;;;;;;;;4997819;28;19924;-80
2021/10/13 04:02:04;;;;;;;;;;;;;;;;;;5014152;28;20491;-81
2021/10/13 04:04:29;;;;;;;;;;;;;;;;;;4997173;28;19917;-80
2021/10/13 04:06:54;;;;;;;;;;;;;;;;;;5013863;28;19933;-80
2021/10/13 04:09:19;;;;;;;;;;;;;;;;;;5014630;28;19917;-80
2021/10/13 04:11:45;;;;;;;;;;;;;;;;;;5002584;28;19933;-80
2021/10/13 04:14:10;;;;;;;;;;;;;;;;;;4995657;28;20004;-83
2021/10/13 04:16:35;;;;;;;;;;;;;;;;;;4997339;28;19935;-84
2021/10/13 04:19:01;;;;;;;;;;;;;;;;;;5010683;28;20303;-84
2021/10/13 04:21:26;;;;;;;;;;;;;;;;;;4997778;28;19921;-84
2021/10/13 04:23:51;;;;;;;;;;;;;;;;;;4997687;28;19945;-83
2021/10/13 04:26:17;;;;;;;;;;;;;;;;;;4997910;28;19924;-83
2021/10/13 04:28:42;;;;;;;;;;;;;;;;;;4997843;28;19917;-83
2021/10/13 04:31:07;;;;;;;;;;;;;;;;;;4997221;28;19917;-85
2021/10/13 04:33:33;;;;;;;;;;;;;;;;;;5013843;28;19921;-83
2021/10/13 04:35:58;;;;;;;;;;;;;;;;;;5014277;28;19917;-84
2021/10/13 04:38:23;;;;;;;;;;;;;;;;;;4997586;28;20000;-84
2021/10/13 04:40:49;;;;;;;;;;;;;;;;;;5010725;28;20004;-83
2021/10/13 04:43:14;;;;;;;;;;;;;;;;;;5013958;28;19996;-83
2021/10/13 04:45:39;;;;;;;;;;;;;;;;;;5014048;28;19917;-84
2021/10/13 04:48:05;;;;;;;;;;;;;;;;;;4996459;28;20068;-83
2021/10/13 04:50:30;;;;;;;;;;;;;;;;;;4981325;28;19929;-83
2021/10/13 04:52:55;;;;;;;;;;;;;;;;;;5013979;28;19917;-82
2021/10/13 04:55:21;;;;;;;;;;;;;;;;;;5013733;28;19924;-83
2021/10/13 04:57:46;;;;;;;;;;;;;;;;;;5013821;28;19925;-83
2021/10/13 05:00:11;;;;;;;;;;;;;;;;;;5013696;28;19964;-83
2021/10/13 05:02:37;;;;;;;;;;;;;;;;;;5013376;28;19921;-83
2021/10/13 05:05:02;;;;;;;;;;;;;;;;;;4996827;28;20004;-82
2021/10/13 05:07:28;;;;;;;;;;;;;;;;;;4995057;28;19964;-83
2021/10/13 05:09:53;;;;;;;;;;;;;;;;;;4995028;28;20367;-82
2021/10/13 05:12:19;;;;;;;;;;;;;;;;;;4997034;28;19917;-79
2021/10/13 05:14:44;;;;;;;;;;;;;;;;;;5020085;28;19921;-78
2021/10/13 05:17:11;;;;;;;;;;;;;;;;;;5013706;28;19931;-78
2021/10/13 05:19:36;;;;;;;;;;;;;;;;;;5000870;28;19925;-78
2021/10/13 05:22:01;;;;;;;;;;;;;;;;;;5000421;28;19939;-79
2021/10/13 05:24:27;;;;;;;;;;;;;;;;;;5024026;28;19924;-78
2021/10/13 05:26:52;;;;;;;;;;;;;;;;;;5031627;28;19979;-78
2021/10/13 05:29:17;;;;;;;;;;;;;;;;;;5000847;28;19913;-78
2021/10/13 05:31:44;;;;;;;;;;;;;;;;;;5000710;28;19925;-78
2021/10/13 05:34:09;;;;;;;;;;;;;;;;;;5014847;28;19921;-78
2021/10/13 05:36:34;;;;;;;;;;;;;;;;;;5017129;28;19921;-78
2021/10/13 05:39:00;;;;;;;;;;;;;;;;;;5016756;28;20020;-78
2021/10/13 05:41:25;;;;;;;;;;;;;;;;;;5016416;28;19922;-78
2021/10/13 05:43:51;;;;;;;;;;;;;;;;;;4983562;28;19917;-81
2021/10/13 05:46:16;;;;;;;;;;;;;;;;;;5000217;28;19921;-82
2021/10/13 05:48:41;;;;;;;;;;;;;;;;;;5015116;28;19921;-82
2021/10/13 05:51:07;;;;;;;;;;;;;;;;;;5014040;28;20032;-82
2021/10/13 05:53:32;;;;;;;;;;;;;;;;;;5017213;28;20055;-82
2021/10/13 05:55:57;;;;;;;;;;;;;;;;;;5017042;28;19955;-81
2021/10/13 05:58:24;;;;;;;;;;;;;;;;;;5000092;28;20027;-82
2021/10/13 06:00:50;;;;;;;;;;;;;;;;;;4999578;28;19924;-82
2021/10/13 06:03:15;;;;;;;;;;;;;;;;;;4999984;28;19918;-81
2021/10/13 06:05:40;;;;;;;;;;;;;;;;;;5000278;28;19917;-82
2021/10/13 06:08:06;;;;;;;;;;;;;;;;;;5016728;28;19923;-81
2021/10/13 06:10:31;;;;;;;;;;;;;;;;;;5007344;28;20022;-81
2021/10/13 06:12:58;;;;;;;;;;;;;;;;;;5016376;28;20004;-80
2021/10/13 06:15:24;;;;;;;;;;;;;;;;;;5015181;28;19956;-80
2021/10/13 06:17:49;;;;;;;;;;;;;;;;;;4999963;28;19917;-80
2021/10/13 06:20:14;;;;;;;;;;;;;;;;;;4980949;28;19926;-80
2021/10/13 06:22:40;;;;;;;;;;;;;;;;;;4980561;28;19921;-80
2021/10/13 06:25:06;;;;;;;;;;;;;;;;;;5009217;28;20291;-82
2021/10/13 06:27:32;;;;;;;;;;;;;;;;;;5016265;28;20455;-81
2021/10/13 06:29:57;;;;;;;;;;;;;;;;;;4999169;28;20007;-80
2021/10/13 06:32:22;;;;;;;;;;;;;;;;;;5014248;28;20334;-80
2021/10/13 06:34:47;;;;;;;;;;;;;;;;;;5016440;28;19920;-81
2021/10/13 06:37:13;;;;;;;;;;;;;;;;;;4999018;28;19951;-80
2021/10/13 06:39:38;;;;;;;;;;;;;;;;;;5011047;28;19924;-81
2021/10/13 06:42:04;;;;;;;;;;;;;;;;;;4998541;28;19935;-81
2021/10/13 06:44:29;;;;;;;;;;;;;;;;;;5015719;28;19993;-80
2021/10/13 06:46:55;;;;;;;;;;;;;;;;;;5015561;28;20012;-81
2021/10/13 06:49:20;;;;;;;;;;;;;;;;;;5015778;28;19925;-81
2021/10/13 06:51:46;;;;;;;;;;;;;;;;;;5015840;28;19989;-80
2021/10/13 06:54:11;;;;;;;;;;;;;;;;;;5015590;28;19917;-80
2021/10/13 06:56:37;;;;;;;;;;;;;;;;;;5014961;28;19928;-82
2021/10/13 06:59:02;;;;;;;;;;;;;;;;;;5015889;28;19913;-81
2021/10/13 07:01:27;;;;;;;;;;;;;;;;;;4997000;28;19917;-81
2021/10/13 07:03:53;;;;;;;;;;;;;;;;;;4982005;28;19925;-81
2021/10/13 07:06:18;;;;;;;;;;;;;;;;;;4998748;28;19924;-80
2021/10/13 07:08:43;;;;;;;;;;;;;;;;;;5015638;28;19919;-81
2021/10/13 07:11:09;;;;;;;;;;;;;;;;;;5013937;28;20359;-81
2021/10/13 07:13:35;;;;;;;;;;;;;;;;;;5011033;28;20615;-81
2021/10/13 07:16:01;;;;;;;;;;;;;;;;;;4995054;28;20357;-80
2021/10/13 07:18:27;;;;;;;;;;;;;;;;;;4997468;28;20020;-80
2021/10/13 07:20:53;;;;;;;;;;;;;;;;;;5012121;28;20000;-81
2021/10/13 07:23:18;;;;;;;;;;;;;;;;;;5015562;28;19913;-80
2021/10/13 07:25:43;;;;;;;;;;;;;;;;;;5029187;28;19967;-80
2021/10/13 07:28:10;;;;;;;;;;;;;;;;;;5015308;28;19917;-80
2021/10/13 07:30:36;;;;;;;;;;;;;;;;;;4999326;28;20394;-81
2021/10/13 07:33:01;;;;;;;;;;;;;;;;;;4998847;28;19913;-80
2021/10/13 07:35:30;;;;;;;;;;;;;;;;;;5008834;28;20454;-81
2021/10/13 07:37:56;;;;;;;;;;;;;;;;;;5018632;28;20290;-80
2021/10/13 07:40:22;;;;;;;;;;;;;;;;;;4997572;28;20260;-81
2021/10/13 07:42:47;;;;;;;;;;;;;;;;;;5010540;28;19918;-82
2021/10/13 07:45:15;;;;;;;;;;;;;;;;;;4979338;28;19917;-82
2021/10/13 07:47:40;;;;;;;;;;;;;;;;;;5000015;28;19953;-82
2021/10/13 07:50:06;;;;;;;;;;;;;;;;;;5014596;28;20026;-83
2021/10/13 07:52:31;;;;;;;;;;;;;;;;;;5014257;28;20489;-82
2021/10/13 07:54:56;;;;;;;;;;;;;;;;;;5014428;28;19924;-82
2021/10/13 07:57:22;;;;;;;;;;;;;;;;;;5006160;28;19918;-82
2021/10/13 07:59:47;;;;;;;;;;;;;;;;;;5007218;28;19924;-82
2021/10/13 08:02:12;;;;;;;;;;;;;;;;;;5014896;28;19983;-82
2021/10/13 08:04:37;;;;;;;;;;;;;;;;;;4991980;28;19925;-82
2021/10/13 08:07:03;;;;;;;;;;;;;;;;;;4996995;28;20287;-81
2021/10/13 08:09:28;;;;;;;;;;;;;;;;;;4980520;28;19953;-81
2021/10/13 08:11:53;;;;;;;;;;;;;;;;;;5010684;28;19914;-82
2021/10/13 08:14:19;;;;;;;;;;;;;;;;;;5024751;28;19924;-82
2021/10/13 08:16:44;;;;;;;;;;;;;;;;;;4980351;28;19923;-82
2021/10/13 08:19:09;;;;;;;;;;;;;;;;;;4993604;28;19925;-81
2021/10/13 08:21:35;;;;;;;;;;;;;;;;;;4994755;28;20005;-81
2021/10/13 08:24:00;;;;;;;;;;;;;;;;;;5001862;28;19924;-81
2021/10/13 08:26:25;;;;;;;;;;;;;;;;;;5006482;28;19917;-81
2021/10/13 08:28:51;;;;;;;;;;;;;;;;;;4998202;28;19913;-82
2021/10/13 08:31:16;;;;;;;;;;;;;;;;;;5014465;28;19967;-81
2021/10/13 08:33:42;;;;;;;;;;;;;;;;;;4998119;28;19920;-82
2021/10/13 08:36:07;;;;;;;;;;;;;;;;;;5014096;28;19925;-81
2021/10/13 08:38:32;;;;;;;;;;;;;;;;;;5013952;28;19917;-82
2021/10/13 08:40:58;;;;;;;;;;;;;;;;;;5013451;28;20392;-82
2021/10/13 08:43:23;;;;;;;;;;;;;;;;;;4997591;28;19924;-83
2021/10/13 08:45:49;;;;;;;;;;;;;;;;;;4993078;28;23389;-83
2021/10/13 08:48:14;;;;;;;;;;;;;;;;;;5007494;28;20372;-83
2021/10/13 08:50:40;;;;;;;;;;;;;;;;;;4982791;28;20016;-83
2021/10/13 08:53:13;;;;;;;;;;;;;;;;;;5013701;28;20012;-82
2021/10/13 08:55:39;;;;;;;;;;;;;;;;;;4999712;28;19921;-84
2021/10/13 08:58:11;;;;;;;;;;;;;;;;;;4999763;28;20031;-83
2021/10/13 09:00:36;;;;;;;;;;;;;;;;;;5021473;28;20016;-83
2021/10/13 09:03:01;;;;;;;;;;;;;;;;;;4981909;28;20016;-84
2021/10/13 09:05:27;;;;;;;;;;;;;;;;;;5017365;28;19924;-83
2021/10/13 09:07:56;;;;;;;;;;;;;;;;;;5017610;28;19913;-84
2021/10/13 09:10:31;;;;;;;;;;;;;;;;;;5000693;28;19917;-84
2021/10/13 09:13:00;;;;;;;;;;;;;;;;;;5001302;28;20326;-84
2021/10/13 09:15:26;;;;;;;;;;;;;;;;;;5017779;28;19917;-84
2021/10/13 09:17:52;;;;;;;;;;;;;;;;;;4996579;28;19975;-84
2021/10/13 09:20:18;;;;;;;;;;;;;;;;;;5007825;28;19975;-84
2021/10/13 09:23:03;;;;;;;;;;;;;;;;;;5012278;28;20294;-84
2021/10/13 09:25:29;;;;;;;;;;;;;;;;;;5015882;28;19914;-84
2021/10/13 09:27:56;;;;;;;;;;;;;;;;;;5010269;28;20072;-84
2021/10/13 09:30:31;;;;;;;;;;;;;;;;;;4997605;28;20044;-87
2021/10/13 09:33:10;;;;;;;;;;;;;;;;;;4981783;28;19929;-80
2021/10/13 09:35:39;;;;;;;;;;;;;;;;;;5014023;28;19917;-78
2021/10/13 09:38:04;;;;;;;;;;;;;;;;;;5014004;28;20000;-78
2021/10/13 09:40:34;;;;;;;;;;;;;;;;;;4997496;28;20075;-79
2021/10/13 09:42:59;;;;;;;;;;;;;;;;;;4997403;28;20279;-80
2021/10/13 09:45:28;;;;;;;;;;;;;;;;;;4981199;28;19918;-79
2021/10/13 09:47:58;;;;;;;;;;;;;;;;;;5012578;28;19917;-79
2021/10/13 09:50:23;;;;;;;;;;;;;;;;;;5013187;28;20048;-80
2021/10/13 09:52:48;;;;;;;;;;;;;;;;;;4989247;28;20423;-79
2021/10/13 09:55:14;;;;;;;;;;;;;;;;;;5000205;28;20019;-81
2021/10/13 09:57:43;;;;;;;;;;;;;;;;;;5016353;28;19917;-79
2021/10/13 10:00:11;;;;;;;;;;;;;;;;;;4998697;28;19924;-81
2021/10/13 10:02:40;;;;;;;;;;;;;;;;;;5018415;28;19996;-82
2021/10/13 10:05:13;;;;;;;;;;;;;;;;;;4998652;28;19924;-82
2021/10/13 10:07:43;;;;;;;;;;;;;;;;;;4989456;28;20110;-81
2021/10/13 10:10:09;;;;;;;;;;;;;;;;;;4998529;28;19924;-81
2021/10/13 10:13:07;;;;;;;;;;;;;;;;;;4975722;28;19917;-82
2021/10/13 10:15:33;;;;;;;;;;;;;;;;;;4964004;28;20403;-81
2021/10/13 10:17:58;;;;;;;;;;;;;;;;;;4996647;28;19913;-81
2021/10/13 10:20:34;;;;;;;;;;;;;;;;;;4969980;28;19924;-82
2021/10/13 10:22:59;;;;;;;;;;;;;;;;;;4999860;28;19952;-81
2021/10/13 10:25:34;;;;;;;;;;;;;;;;;;5005512;28;20011;-82
2021/10/13 10:27:59;;;;;;;;;;;;;;;;;;4999216;28;20298;-82
2021/10/13 10:30:25;;;;;;;;;;;;;;;;;;5016189;28;19913;-81
2021/10/13 10:32:53;;;;;;;;;;;;;;;;;;5000227;28;19913;-81
2021/10/13 10:35:18;;;;;;;;;;;;;;;;;;5015835;28;19913;-81
2021/10/13 10:37:53;;;;;;;;;;;;;;;;;;4983195;28;19975;-81
2021/10/13 10:40:23;;;;;;;;;;;;;;;;;;4999175;28;19920;-81
2021/10/13 10:42:49;;;;;;;;;;;;;;;;;;4999693;28;19917;-83
2021/10/13 10:45:19;;;;;;;;;;;;;;;;;;4995566;28;19923;-82
2021/10/13 10:47:51;;;;;;;;;;;;;;;;;;4988865;28;19917;-82
2021/10/13 10:50:36;;;;;;;;;;;;;;;;;;4996114;28;19925;-81
2021/10/13 10:53:08;;;;;;;;;;;;;;;;;;5022854;28;19917;-80
2021/10/13 10:55:37;;;;;;;;;;;;;;;;;;4999409;28;19921;-81
2021/10/13 10:58:19;;;;;;;;;;;;;;;;;;4983133;28;19963;-81
2021/10/13 11:00:44;;;;;;;;;;;;;;;;;;4999083;28;19913;-82
2021/10/13 11:03:19;;;;;;;;;;;;;;;;;;5015428;28;20022;-81
2021/10/13 11:05:45;;;;;;;;;;;;;;;;;;5015851;28;19967;-81
2021/10/13 11:08:10;;;;;;;;;;;;;;;;;;4999006;28;20337;-81
2021/10/13 11:10:36;;;;;;;;;;;;;;;;;;5013572;28;19917;-81
2021/10/13 11:13:01;;;;;;;;;;;;;;;;;;4998991;28;19913;-81
2021/10/13 11:15:29;;;;;;;;;;;;;;;;;;4998333;28;20008;-81
2021/10/13 11:17:55;;;;;;;;;;;;;;;;;;5000122;28;19944;-81
2021/10/13 11:20:21;;;;;;;;;;;;;;;;;;4979109;28;19980;-81
2021/10/13 11:22:56;;;;;;;;;;;;;;;;;;4995602;28;19924;-81
2021/10/13 11:25:22;;;;;;;;;;;;;;;;;;4993776;28;19913;-81
2021/10/13 11:28:03;;;;;;;;;;;;;;;;;;5004267;28;20446;-81
2021/10/13 11:30:29;;;;;;;;;;;;;;;;;;4995501;28;19913;-81
2021/10/13 11:32:55;;;;;;;;;;;;;;;;;;4997743;28;19973;-81
2021/10/13 11:35:21;;;;;;;;;;;;;;;;;;4998095;28;19948;-81
2021/10/13 11:37:49;;;;;;;;;;;;;;;;;;4998061;28;20272;-81
2021/10/13 11:40:17;;;;;;;;;;;;;;;;;;5008630;28;19917;-82
2021/10/13 11:42:42;;;;;;;;;;;;;;;;;;5014212;28;19913;-82
2021/10/13 11:45:15;;;;;;;;;;;;;;;;;;5015070;28;19913;-83
2021/10/13 11:47:40;;;;;;;;;;;;;;;;;;4981662;28;20394;-83
2021/10/13 11:50:07;;;;;;;;;;;;;;;;;;4996218;28;20008;-80
2021/10/13 11:52:32;;;;;;;;;;;;;;;;;;4998133;28;19919;-81
2021/10/13 11:54:59;;;;;;;;;;;;;;;;;;5014962;28;20266;-81
2021/10/13 11:57:24;;;;;;;;;;;;;;;;;;4982233;28;19913;-83
2021/10/13 12:00:06;;;;;;;;;;;;;;;;;;5014521;28;19913;-84
2021/10/13 12:02:31;;;;;;;;;;;;;;;;;;4998500;28;19913;-82
2021/10/13 12:04:57;;;;;;;;;;;;;;;;;;4998486;28;20300;-82
2021/10/13 12:07:23;;;;;;;;;;;;;;;;;;5014203;28;19960;-82
2021/10/13 12:09:55;;;;;;;;;;;;;;;;;;4997861;28;19968;-82
2021/10/13 12:12:20;;;;;;;;;;;;;;;;;;5013251;28;20002;-83
2021/10/13 12:14:47;;;;;;;;;;;;;;;;;;4998062;28;19999;-81
2021/10/13 12:17:25;;;;;;;;;;;;;;;;;;4997719;28;19920;-82
2021/10/13 12:19:51;;;;;;;;;;;;;;;;;;4996354;28;19940;-81
2021/10/13 12:22:16;;;;;;;;;;;;;;;;;;4994397;28;20016;-81
2021/10/13 12:24:41;;;;;;;;;;;;;;;;;;4996988;28;19917;-81
2021/10/13 12:27:08;;;;;;;;;;;;;;;;;;4994820;28;20007;-81
2021/10/13 12:29:41;;;;;;;;;;;;;;;;;;5005563;28;20356;-82
2021/10/13 12:32:13;;;;;;;;;;;;;;;;;;5004485;28;19913;-81
2021/10/13 12:34:39;;;;;;;;;;;;;;;;;;5020496;28;19925;-82
2021/10/13 12:37:06;;;;;;;;;;;;;;;;;;5004495;28;19913;-81
2021/10/13 12:39:34;;;;;;;;;;;;;;;;;;5019629;28;19960;-81
2021/10/13 12:42:03;;;;;;;;;;;;;;;;;;5017449;28;19917;-82
2021/10/13 12:44:29;;;;;;;;;;;;;;;;;;5018319;28;19956;-81
2021/10/13 12:46:54;;;;;;;;;;;;;;;;;;5003769;28;19976;-81
2021/10/13 12:49:22;;;;;;;;;;;;;;;;;;5001896;28;20331;-82
2021/10/13 12:51:48;;;;;;;;;;;;;;;;;;5002492;28;20048;-81
2021/10/13 12:54:14;;;;;;;;;;;;;;;;;;5019696;28;19913;-81
2021/10/13 12:56:39;;;;;;;;;;;;;;;;;;5018125;28;19928;-82
2021/10/13 12:59:05;;;;;;;;;;;;;;;;;;5020116;28;19920;-81
2021/10/13 13:01:30;;;;;;;;;;;;;;;;;;4987896;28;19921;-81
2021/10/13 13:03:55;;;;;;;;;;;;;;;;;;5021163;28;20271;-82
2021/10/13 13:06:21;;;;;;;;;;;;;;;;;;4988188;28;19927;-82
2021/10/13 13:08:46;;;;;;;;;;;;;;;;;;5020125;28;20163;-82
2021/10/13 13:11:11;;;;;;;;;;;;;;;;;;5012530;28;19924;-81
2021/10/13 13:13:37;;;;;;;;;;;;;;;;;;5020361;28;19921;-82
2021/10/13 13:16:02;;;;;;;;;;;;;;;;;;5003648;28;20371;-81
2021/10/13 13:18:27;;;;;;;;;;;;;;;;;;5014548;28;20287;-82
2021/10/13 13:20:53;;;;;;;;;;;;;;;;;;5013346;28;20383;-81
2021/10/13 13:23:19;;;;;;;;;;;;;;;;;;5020766;28;19920;-82
2021/10/13 13:25:44;;;;;;;;;;;;;;;;;;5024884;28;19928;-82
2021/10/13 13:28:09;;;;;;;;;;;;;;;;;;4998440;28;19917;-82
2021/10/13 13:30:35;;;;;;;;;;;;;;;;;;5007319;28;20735;-82
2021/10/13 13:33:00;;;;;;;;;;;;;;;;;;5003463;28;19945;-82
2021/10/13 13:35:25;;;;;;;;;;;;;;;;;;5017892;28;19921;-82
2021/10/13 13:37:51;;;;;;;;;;;;;;;;;;5020251;28;19921;-81
2021/10/13 13:40:16;;;;;;;;;;;;;;;;;;5012222;28;19991;-82
2021/10/13 13:42:42;;;;;;;;;;;;;;;;;;4999753;28;19917;-82
2021/10/13 13:45:07;;;;;;;;;;;;;;;;;;5016046;28;19921;-82
2021/10/13 13:47:33;;;;;;;;;;;;;;;;;;5016278;28;19924;-82
2021/10/13 13:49:59;;;;;;;;;;;;;;;;;;4999881;28;20017;-81
2021/10/13 13:52:26;;;;;;;;;;;;;;;;;;5016454;28;20406;-81
2021/10/13 13:54:52;;;;;;;;;;;;;;;;;;5000336;28;19961;-81
2021/10/13 13:57:17;;;;;;;;;;;;;;;;;;5015219;28;20030;-82
2021/10/13 13:59:42;;;;;;;;;;;;;;;;;;4999241;28;19967;-81
2021/10/13 14:02:07;;;;;;;;;;;;;;;;;;5000058;28;19917;-82
2021/10/13 14:04:33;;;;;;;;;;;;;;;;;;4984183;28;20110;-82
2021/10/13 14:06:58;;;;;;;;;;;;;;;;;;4998517;28;20338;-81
2021/10/13 14:09:24;;;;;;;;;;;;;;;;;;4999897;28;19952;-82
2021/10/13 14:11:49;;;;;;;;;;;;;;;;;;5016100;28;19913;-82
2021/10/13 14:14:15;;;;;;;;;;;;;;;;;;5016304;28;19921;-82
2021/10/13 14:16:40;;;;;;;;;;;;;;;;;;5016251;28;19956;-81
2021/10/13 14:19:05;;;;;;;;;;;;;;;;;;4999688;28;19921;-82
2021/10/13 14:21:30;;;;;;;;;;;;;;;;;;5016362;28;19971;-82
2021/10/13 14:23:56;;;;;;;;;;;;;;;;;;5003191;28;19996;-81
2021/10/13 14:26:21;;;;;;;;;;;;;;;;;;5002823;28;19995;-81
2021/10/13 14:28:46;;;;;;;;;;;;;;;;;;4999878;28;20007;-82
2021/10/13 14:31:12;;;;;;;;;;;;;;;;;;5015780;28;20015;-81
2021/10/13 14:33:37;;;;;;;;;;;;;;;;;;5016597;28;19982;-81
2021/10/13 14:36:03;;;;;;;;;;;;;;;;;;5015956;28;19917;-85
2021/10/13 14:38:29;;;;;;;;;;;;;;;;;;4999939;28;19920;-85
2021/10/13 14:40:55;;;;;;;;;;;;;;;;;;5015117;28;19917;-81
2021/10/13 14:43:20;;;;;;;;;;;;;;;;;;5015303;28;19917;-82
2021/10/13 14:45:45;;;;;;;;;;;;;;;;;;5016021;28;19917;-82
2021/10/13 14:48:11;;;;;;;;;;;;;;;;;;5015769;28;19925;-82
2021/10/13 14:50:36;;;;;;;;;;;;;;;;;;4998593;28;19972;-82
2021/10/13 14:53:02;;;;;;;;;;;;;;;;;;5016125;28;20011;-82
2021/10/13 14:55:27;;;;;;;;;;;;;;;;;;5013919;28;20338;-82
2021/10/13 14:57:52;;;;;;;;;;;;;;;;;;4998045;28;20363;-81
2021/10/13 15:00:18;;;;;;;;;;;;;;;;;;4996912;28;19925;-81
2021/10/13 15:02:44;;;;;;;;;;;;;;;;;;4980004;28;20014;-82
2021/10/13 15:05:09;;;;;;;;;;;;;;;;;;4997990;28;19960;-82
2021/10/13 15:07:34;;;;;;;;;;;;;;;;;;5015172;28;19917;-82
2021/10/13 15:10:00;;;;;;;;;;;;;;;;;;4998599;28;19917;-82
2021/10/13 15:12:25;;;;;;;;;;;;;;;;;;5014917;28;19939;-82
2021/10/13 15:14:51;;;;;;;;;;;;;;;;;;4998765;28;19917;-82
2021/10/13 15:17:17;;;;;;;;;;;;;;;;;;4982740;28;20029;-83
2021/10/13 15:19:42;;;;;;;;;;;;;;;;;;5014188;28;20268;-82
2021/10/13 15:22:08;;;;;;;;;;;;;;;;;;5014929;28;19918;-82
2021/10/13 15:24:37;;;;;;;;;;;;;;;;;;4986229;28;19917;-82
2021/10/13 15:27:02;;;;;;;;;;;;;;;;;;5014392;28;19917;-82
2021/10/13 15:29:28;;;;;;;;;;;;;;;;;;4998419;28;19963;-82
2021/10/13 15:31:54;;;;;;;;;;;;;;;;;;4998678;28;19963;-82
2021/10/13 15:34:19;;;;;;;;;;;;;;;;;;4998839;28;20256;-82
2021/10/13 15:36:45;;;;;;;;;;;;;;;;;;5015278;28;19917;-82
2021/10/13 15:39:11;;;;;;;;;;;;;;;;;;4998150;28;19955;-82
2021/10/13 15:41:36;;;;;;;;;;;;;;;;;;4998398;28;20015;-82
2021/10/13 15:44:01;;;;;;;;;;;;;;;;;;4998621;28;20326;-82
2021/10/13 15:46:28;;;;;;;;;;;;;;;;;;5013716;28;19920;-82
2021/10/13 15:48:54;;;;;;;;;;;;;;;;;;4998113;28;19921;-83
2021/10/13 15:51:19;;;;;;;;;;;;;;;;;;4998154;28;19917;-82
2021/10/13 15:53:44;;;;;;;;;;;;;;;;;;4997589;28;19920;-82
2021/10/13 15:56:10;;;;;;;;;;;;;;;;;;4998651;28;20382;-82
2021/10/13 15:58:35;;;;;;;;;;;;;;;;;;4981304;28;19913;-82
2021/10/13 16:01:02;;;;;;;;;;;;;;;;;;5014552;28;19918;-82
2021/10/13 16:03:27;;;;;;;;;;;;;;;;;;5013582;28;19967;-81
2021/10/13 16:05:52;;;;;;;;;;;;;;;;;;5008052;28;19926;-82
2021/10/13 16:08:19;;;;;;;;;;;;;;;;;;5013555;28;20011;-82
2021/10/13 16:10:44;;;;;;;;;;;;;;;;;;4994673;28;19914;-81
2021/10/13 16:13:09;;;;;;;;;;;;;;;;;;5010968;28;19920;-81
2021/10/13 16:15:35;;;;;;;;;;;;;;;;;;5001761;28;19924;-81
2021/10/13 16:18:00;;;;;;;;;;;;;;;;;;4997393;28;19927;-81
2021/10/13 16:20:25;;;;;;;;;;;;;;;;;;4981818;28;19975;-81
2021/10/13 16:22:51;;;;;;;;;;;;;;;;;;4998280;28;20282;-81
2021/10/13 16:25:16;;;;;;;;;;;;;;;;;;5028400;28;20365;-81
2021/10/13 16:27:41;;;;;;;;;;;;;;;;;;5004580;28;19975;-81
2021/10/13 16:30:07;;;;;;;;;;;;;;;;;;5014344;28;20019;-81
2021/10/13 16:32:34;;;;;;;;;;;;;;;;;;5012457;28;19917;-81
2021/10/13 16:34:59;;;;;;;;;;;;;;;;;;4996713;28;20363;-81
2021/10/13 16:37:24;;;;;;;;;;;;;;;;;;4981650;28;19920;-81
2021/10/13 16:39:50;;;;;;;;;;;;;;;;;;5010857;28;20418;-81
2021/10/13 16:42:15;;;;;;;;;;;;;;;;;;5010717;28;19921;-81